• Join FlightAware (Why Join?)
  • Login
  • US Flag 
09:38PM EST


 

Airport Tracker/Info


-or-


 

Live Flight TrackerFlight Track Log ✈ ASQ4253 ✈ 11-Jun-2013 ✈ KCAE - KIAH

Flight Track Log - Related Links

Times and Time Zones

All times are in EDT time to prevent confusion due to time zone crossing. See the ASQ4253 flight status page for this flight to view local times or setup timezone preferences in your user account.

Time Position Orientation Groundspeed Altitude Reporting Facility
EDT Latitude Longitude Course Direction KTS MPH feet Rate Location/Type
05:39PM 33.9297 -81.2206 252° West 182 209 3,100  Level Jacksonville Center
05:40PM 33.8950 -81.2864 238° Southwest 205 236 4,200 1,620 Climbing Jacksonville Center
05:41PM 33.7676 -81.4421 246° West  Level FlightAware Approximate
05:41PM 33.8606 -81.3594 240° Southwest 240 276 6,400  Level Jacksonville Center
05:42PM 33.7203 -81.5572 237° Southwest  Level FlightAware Approximate
05:42PM 33.8239 -81.4350 240° Southwest 259 298 8,200  Level Jacksonville Center
05:43PM 33.6617 -81.6647 237° Southwest  Level FlightAware Approximate
05:44PM 33.6081 -81.7756 243° Southwest  Level FlightAware Approximate
05:44PM 33.7589 -81.6061 245° Southwest 283 326 11,700  Level Jacksonville Center
05:46PM 33.6919 -81.7717 244° Southwest 279 321 15,200 1,320 Climbing Atlanta Center
05:47PM 33.6475 -81.8603 239° Southwest 294 338 15,700 480 Climbing Atlanta Center
05:48PM 33.5969 -81.9564 238° Southwest 324 373 16,200 480 Climbing Atlanta Center
05:49PM 33.5425 -82.0600 238° Southwest 352 405 16,700 600 Climbing Atlanta Center
05:50PM 33.4836 -82.1658 236° Southwest 376 433 17,400 660 Climbing Atlanta Center
05:51PM 33.4267 -82.2767 238° Southwest 391 450 18,100 780 Climbing Atlanta Center
05:52PM 33.3658 -82.3897 237° Southwest 414 476 19,000 960 Climbing Atlanta Center
05:53PM 33.3086 -82.4978 238° Southwest 398 458 20,100 1,200 Climbing Atlanta Center
05:54PM 33.2536 -82.6081 239° Southwest 393 452 21,400 1,260 Climbing Atlanta Center
05:55PM 33.1922 -82.7158 236° Southwest 393 452 22,700 1,200 Climbing Atlanta Center
05:56PM 33.1392 -82.8258 240° Southwest 393 452 23,900 1,260 Climbing Atlanta Center
05:57PM 33.1028 -82.9528 251° West 380 437 25,300 1,320 Climbing Atlanta Center
05:58PM 33.0744 -83.0744 254° West 375 432 26,600 1,260 Climbing Atlanta Center
05:59PM 33.0608 -83.1861 262° West 365 420 27,900 1,200 Climbing Atlanta Center
06:00PM 33.0572 -83.3053 268° West 360 414 29,100 1,140 Climbing Atlanta Center
06:01PM 33.0453 -83.4069 262° West 354 407 30,200 900 Climbing Atlanta Center
06:02PM 33.0167 -83.5186 253° West 354 407 31,000 780 Climbing Atlanta Center
06:03PM 32.9836 -83.6403 252° West 366 421 31,800 780 Climbing Atlanta Center
06:04PM 32.9506 -83.7592 252° West 371 427 32,600 720 Climbing Atlanta Center
06:05PM 32.9175 -83.8781 252° West 382 440 33,300 660 Climbing Atlanta Center
06:06PM 32.8842 -84.0067 253° West 395 455 34,000 660 Climbing Atlanta Center
06:07PM 32.8486 -84.1303 251° West 400 460 34,700 600 Climbing Atlanta Center
06:08PM 32.8089 -84.2711 251° West 406 467 35,300 540 Climbing Atlanta Center
06:09PM 32.7772 -84.3847 252° West 406 467 35,800 300 Climbing Atlanta Center
06:10PM 32.7414 -84.5131 252° West 401 461 36,000 60 Climbing Atlanta Center
06:11PM 32.7053 -84.6461 252° West 406 467 36,000  Level Atlanta Center
06:12PM 32.6669 -84.7817 251° West 426 490 36,000  Level Atlanta Center
06:13PM 32.6328 -84.9169 253° West 426 490 36,000  Level Atlanta Center
06:14PM 32.5836 -85.0544 247° West 436 502 36,000  Level Atlanta Center
06:15PM 32.5489 -85.1994 254° West 451 519 36,000  Level Atlanta Center
06:16PM 32.5078 -85.3417 251° West 456 525 36,000  Level Atlanta Center
06:17PM 32.4667 -85.4864 251° West 461 531 36,000  Level Atlanta Center
06:18PM 32.4253 -85.6286 251° West 461 531 36,000  Level Atlanta Center
06:19PM 32.3836 -85.7703 251° West 461 531 36,000  Level Atlanta Center
06:20PM 32.3378 -85.9144 249° West 469 540 36,000  Level Atlanta Center
06:21PM 32.2978 -86.0539 251° West 464 534 36,000  Level Atlanta Center
06:22PM 32.2581 -86.1953 252° West 457 526 36,000  Level Atlanta Center
06:23PM 32.2072 -86.3511 249° West 457 526 36,000  Level Atlanta Center
06:24PM 32.1383 -86.4500 231° Southwest 458 527 36,000  Level Atlanta Center
06:25PM 32.0569 -86.5653 230° Southwest 453 521 36,000  Level Atlanta Center
06:26PM 31.9753 -86.6758 229° Southwest 458 527 36,000  Level Atlanta Center
06:27PM 31.8786 -86.8000 228° Southwest 464 534 36,000  Level Atlanta Center
06:29PM 31.7147 -87.0244 229° Southwest 459 528 36,000  Level Atlanta Center
06:31PM 31.6153 -87.1636 230° Southwest 455 524 36,000  Level Houston Center
06:32PM 31.5533 -87.3236 246° West 449 517 36,000  Level Houston Center
06:33PM 31.5028 -87.4553 246° West 444 511 36,000  Level Houston Center
06:34PM 31.4533 -87.5869 246° West 443 510 36,000  Level Houston Center
06:35PM 31.4031 -87.7175 246° West 441 507 36,000  Level Houston Center
06:36PM 31.3539 -87.8456 246° West 436 502 36,000  Level Houston Center
06:37PM 31.3047 -87.9736 246° West 435 501 36,000  Level Houston Center
06:38PM 31.2467 -88.1258 246° West 432 497 36,000  Level Houston Center
06:39PM 31.2022 -88.2408 246° West 432 497 36,000  Level Houston Center
06:40PM 31.1517 -88.3669 245° Southwest 427 491 36,000  Level Houston Center
06:41PM 31.0931 -88.5144 245° Southwest 421 484 36,000  Level Houston Center
06:42PM 31.0411 -88.6453 245° Southwest 425 489 36,000  Level Houston Center
06:43PM 30.9917 -88.7678 245° Southwest 421 484 36,000  Level Houston Center
06:44PM 30.9428 -88.8914 245° Southwest 424 488 36,000  Level Houston Center
06:45PM 30.8969 -89.0114 246° West 422 486 36,000  Level Houston Center
06:46PM 30.8361 -89.1597 245° Southwest 424 488 36,000  Level Houston Center
06:47PM 30.7864 -89.2842 245° Southwest 424 488 36,000  Level Houston Center
06:48PM 30.7367 -89.4086 245° Southwest 423 487 36,000  Level Houston Center
06:49PM 30.6872 -89.5336 245° Southwest 427 491 36,000 -60 Level Houston Center
06:50PM 30.6372 -89.6581 245° Southwest 427 491 35,900  Descending Houston Center
06:52PM 30.5767 -89.8083 245° Southwest 433 498 36,000  Climbing Houston Center
06:53PM 30.5253 -89.9336 245° Southwest 434 499 36,000  Level Houston Center
06:54PM 30.4753 -90.0564 245° Southwest 434 499 36,000  Level Houston Center
06:55PM 30.4242 -90.1789 244° Southwest 430 495 36,000  Level Houston Center
06:56PM 30.3731 -90.3006 244° Southwest 426 490 36,000  Level Houston Center
06:57PM 30.3122 -90.4464 244° Southwest 422 486 36,000  Level Houston Center
06:58PM 30.2606 -90.5700 244° Southwest 427 491 36,000  Level Houston Center
06:59PM 30.2111 -90.6894 244° Southwest 417 480 36,000  Level Houston Center
07:00PM 30.1617 -90.8083 244° Southwest 412 474 36,000  Level Houston Center
07:01PM 30.1119 -90.9239 244° Southwest 405 466 36,000  Level Houston Center
07:02PM 30.0636 -91.0392 244° Southwest 401 461 36,000  Level Houston Center
07:03PM 30.0050 -91.1778 244° Southwest 399 459 36,000  Level Houston Center
07:04PM 29.9567 -91.2922 244° Southwest 399 459 36,000  Level Houston Center
07:05PM 29.9081 -91.4069 244° Southwest 399 459 36,000  Level Houston Center
07:06PM 29.8603 -91.5219 244° Southwest 399 459 36,000  Level Houston Center
07:07PM 29.8111 -91.6358 244° Southwest 398 458 36,000  Level Houston Center
07:08PM 29.7617 -91.7528 244° Southwest 397 457 36,000  Level Houston Center
07:09PM 29.7064 -91.8908 245° Southwest 396 456 36,000  Level Houston Center
07:10PM 29.6861 -92.0142 259° West 393 452 36,000  Level Houston Center
07:11PM 29.6628 -92.1347 257° West 389 448 36,000  Level Houston Center
07:12PM 29.6486 -92.2581 263° West 389 448 36,000  Level Houston Center
07:13PM 29.6436 -92.3819 267° West 389 448 36,000  Level Houston Center
07:14PM 29.6367 -92.5047 266° West 387 445 36,000  Level Houston Center
07:15PM 29.6317 -92.6283 267° West 387 445 36,000  Level Houston Center
07:16PM 29.6236 -92.7756 266° West 385 443 36,000  Level Houston Center
07:17PM 29.6172 -92.8997 267° West 388 447 36,000 -540 Level Houston Center
07:18PM 29.6100 -93.0242 266° West 390 449 35,000 -1,560 Descending Houston Center
07:19PM 29.6033 -93.1511 267° West 396 456 32,800 -2,160 Descending Houston Center
07:20PM 29.5956 -93.2833 266° West 411 473 30,600 -2,160 Descending Houston Center
07:21PM 29.5883 -93.4194 267° West 424 488 28,400 -2,520 Descending Houston Center
07:23PM 29.5783 -93.5956 266° West 455 524 25,400 -2,700 Descending Houston Center
07:24PM 29.5697 -93.7400 266° West 453 521 22,900 -2,460 Descending Houston Center
07:25PM 29.5608 -93.8817 266° West 445 512 20,400 -2,460 Descending Houston Center
07:26PM 29.5533 -94.0214 267° West 439 505 17,900 -2,520 Descending Houston Center
07:26PM 29.5481 -94.0836 264° West 428 493 16,900 -2,280 Descending Houston Center
07:27PM 29.5447 -94.1525 267° West 416 479 15,600 -2,340 Descending Houston Center
07:28PM 29.5375 -94.2725 266° West 374 430 13,400 -1,440 Descending Houston Center
07:29PM 29.5486 -94.3842 277° West 340 391 12,900 -1,500 Descending Houston Center
07:29PM 29.5836 -94.4614 298° West 336 387 10,700 -2,520 Descending Houston Center
07:30PM 29.5936 -94.4889 293° West 333 383 9,900 -1,740 Descending Houston Center
07:31PM 29.6317 -94.5769 296° West 313 360 8,300 -1,920 Descending Houston Center
07:32PM 29.6744 -94.6372 309° West 300 345 6,600 -1,980 Descending Houston Center
07:32PM 29.6831 -94.6464 317° Northwest 297 342 6,300 -1,500 Descending Houston Center
07:33PM 29.7311 -94.7022 315° West 283 326 5,100 -1,380 Descending Houston Center
07:33PM 29.7394 -94.7119 315° West 291 335 4,900 -1,440 Descending Houston Center
07:33PM 29.7808 -94.7586 316° Northwest 270 311 3,800 -1,560 Descending Houston Center
07:34PM 29.8042 -94.7825 318° Northwest 276 318 3,300 -780 Descending Houston Center
07:35PM 29.8394 -94.8233 315° West 263 303 3,000 -300 Descending Houston Center
07:35PM 29.8550 -94.8419 314° West 266 306 3,000  Level Houston Center
07:35PM 29.8847 -94.8806 312° West 255 293 3,000  Level Houston Center
07:36PM 29.9028 -94.9000 317° Northwest 257 296 3,000  Level Houston Center
07:37PM 29.9344 -94.9394 313° West 232 267 3,000 -120 Level Houston Center
07:37PM 29.9453 -94.9542 310° West 236 272 2,900 -780 Descending Houston Center
07:38PM 29.9711 -94.9928 308° West 226 260 2,300 -780 Descending Houston Center
07:38PM 29.9764 -95.0131 287° West 236 272 2,100 -300 Descending Houston Center
07:39PM 29.9775 -95.0594 272° West 205 236 2,000 -120 Descending Houston Center
07:39PM 29.9783 -95.0914 272° West 215 247 2,000  Level Houston Center
07:40PM 29.9775 -95.1269 268° West 214 246 2,000  Level Houston Center
07:40PM 29.9786 -95.1592 272° West 212 244 2,000  Level Houston Center